Parlin Pond Township, Maine
Current Conditions -  °F | °C
As of 3:00 AM on Saturday 25 Oct 2014 (Local Time) from CYSC Reporting Station
Clear Clear  
Wind Chill: 32°   Ceiling: Unl
Heat Index: 32°   Visibility: 9mi
Dew Point: 32°   Wind: 0mph
Humidity: 100%   Direction: NA
Pressure: 29.74"   Gusts: NA
Location:  45.7142°N, 70.304°W
Report Text: CYSC 250700Z AUTO 00000KT 9SM CLR 00/00 A2974 RMK SLP080
Loading
Personal Weather Stations






























Interactive Weather Map
Tropical Storm Tracking
New forecast layout! Learn more

10-Day Weather Forecast

Advertisements
Track Severe Weather on mobile